Time;durP1;ratioP1;P1;durP2;ratioP2;P2;SDS_P1;SDS_P2;PMS_P1;PMS_P2;Temp;Humidity;BMP_temperature;BMP_pressure;BME280_temperature;BME280_humidity;BME280_pressure;Samples;Min_cycle;Max_cycle;Signal;HPM_P1;HPM_P2
2020/12/08 00:00:42;;;;;;;1.80;0.53;;;3.70;94.60;;;;;;5052289;28;20044;-82
2020/12/08 00:03:08;;;;;;;1.50;0.37;;;3.70;94.70;;;;;;5053307;28;20040;-82
2020/12/08 00:05:34;;;;;;;1.70;0.50;;;3.90;94.80;;;;;;5052058;28;20484;-82
2020/12/08 00:07:59;;;;;;;1.80;0.50;;;3.80;94.90;;;;;;5053223;28;20025;-82
2020/12/08 00:10:25;;;;;;;1.43;0.40;;;3.80;94.90;;;;;;5053242;28;20021;-82
2020/12/08 00:12:51;;;;;;;0.97;0.40;;;3.90;95.00;;;;;;5051993;28;20025;-81
2020/12/08 00:15:17;;;;;;;1.63;0.40;;;3.90;95.10;;;;;;5053225;28;20025;-82
2020/12/08 00:17:44;;;;;;;2.17;0.60;;;3.90;95.10;;;;;;5053184;28;20035;-81
2020/12/08 00:20:11;;;;;;;1.30;0.30;;;3.90;95.20;;;;;;5053181;28;20031;-82
2020/12/08 00:22:37;;;;;;;0.87;0.30;;;4.00;95.20;;;;;;5054592;28;20025;-81
2020/12/08 00:25:05;;;;;;;1.93;0.50;;;4.00;95.20;;;;;;5056001;28;20021;-81
2020/12/08 00:27:31;;;;;;;1.77;0.43;;;4.00;95.30;;;;;;5055893;28;20028;-81
2020/12/08 00:29:56;;;;;;;1.47;0.40;;;4.00;95.30;;;;;;5057101;28;20025;-81
2020/12/08 00:32:22;;;;;;;2.50;0.70;;;4.00;95.40;;;;;;5057073;28;20640;-81
2020/12/08 00:34:47;;;;;;;0.97;0.37;;;4.10;95.40;;;;;;5056949;28;20060;-82
2020/12/08 00:37:13;;;;;;;1.77;0.40;;;4.10;95.40;;;;;;5057133;28;20468;-81
2020/12/08 00:39:39;;;;;;;1.03;0.40;;;4.20;95.40;;;;;;5055565;28;20048;-81
2020/12/08 00:42:06;;;;;;;1.97;0.47;;;4.20;95.40;;;;;;5039016;28;20027;-81
2020/12/08 00:44:32;;;;;;;1.70;0.50;;;4.20;95.40;;;;;;5039307;28;20025;-81
2020/12/08 00:46:58;;;;;;;2.63;0.50;;;4.20;95.40;;;;;;5055567;28;20120;-81
2020/12/08 00:49:24;;;;;;;1.67;0.50;;;4.30;95.40;;;;;;5056627;28;20492;-81
2020/12/08 00:52:01;;;;;;;1.47;0.40;;;4.20;95.40;;;;;;5055467;28;20041;-82
2020/12/08 00:54:26;;;;;;;2.73;0.50;;;4.20;95.30;;;;;;5056673;28;20089;-81
2020/12/08 00:56:52;;;;;;;1.83;0.43;;;4.20;95.30;;;;;;5055389;28;20056;-82
2020/12/08 00:59:18;;;;;;;1.00;0.50;;;4.20;95.30;;;;;;5055424;28;20035;-81
2020/12/08 01:01:44;;;;;;;1.63;0.60;;;4.20;95.20;;;;;;5056592;28;20025;-82
2020/12/08 01:04:09;;;;;;;2.10;0.50;;;4.20;95.20;;;;;;5056583;28;20033;-81
2020/12/08 01:06:42;;;;;;;1.53;0.50;;;4.10;95.10;;;;;;5055250;28;20499;-82
2020/12/08 01:09:08;;;;;;;2.40;0.70;;;4.10;95.10;;;;;;5038573;28;20021;-82
2020/12/08 01:11:41;;;;;;;1.50;0.47;;;4.10;95.10;;;;;;5056279;28;20053;-81
2020/12/08 01:14:07;;;;;;;1.30;0.47;;;4.10;95.10;;;;;;5056356;28;20017;-81
2020/12/08 01:16:32;;;;;;;1.23;0.43;;;4.10;95.10;;;;;;5056443;28;20076;-82
2020/12/08 01:18:58;;;;;;;1.73;0.50;;;4.10;95.10;;;;;;5056418;28;20057;-81
2020/12/08 01:21:23;;;;;;;1.70;0.47;;;4.10;95.10;;;;;;5055059;28;20108;-81
2020/12/08 01:23:49;;;;;;;1.90;0.50;;;4.10;95.10;;;;;;5054954;28;20059;-72
2020/12/08 01:26:22;;;;;;;1.77;0.50;;;4.10;95.10;;;;;;5055839;28;20037;-72
2020/12/08 01:28:48;;;;;;;3.33;0.60;;;4.00;95.10;;;;;;5055825;28;20099;-72
2020/12/08 01:31:14;;;;;;;1.70;0.43;;;4.10;95.10;;;;;;5055922;28;20033;-72
2020/12/08 01:33:40;;;;;;;1.63;0.50;;;4.10;95.40;;;;;;5054956;28;20032;-72
2020/12/08 01:36:05;;;;;;;1.30;0.50;;;4.10;95.10;;;;;;5055311;28;20477;-72
2020/12/08 01:38:31;;;;;;;2.30;0.50;;;4.00;95.00;;;;;;5055802;28;20032;-72
2020/12/08 01:40:57;;;;;;;0.77;0.30;;;4.00;95.00;;;;;;5054542;28;20033;-72
2020/12/08 01:43:23;;;;;;;3.40;0.70;;;4.00;95.00;;;;;;5055512;28;20029;-72
2020/12/08 01:45:49;;;;;;;1.60;0.50;;;3.90;94.90;;;;;;5055622;28;20021;-72
2020/12/08 01:48:15;;;;;;;2.70;0.70;;;3.90;95.10;;;;;;5055450;28;20492;-72
2020/12/08 01:50:41;;;;;;;1.50;0.50;;;3.80;94.70;;;;;;5055493;28;20045;-72
2020/12/08 01:53:10;;;;;;;1.33;0.40;;;3.80;94.60;;;;;;5055465;28;20021;-73
2020/12/08 01:55:38;;;;;;;1.30;0.40;;;3.80;94.50;;;;;;5054059;28;20428;-72
2020/12/08 01:58:20;;;;;;;1.33;0.40;;;3.70;94.60;;;;;;5055267;28;20052;-72
2020/12/08 02:00:47;;;;;;;1.90;0.50;;;3.60;94.20;;;;;;5037939;28;20083;-73
2020/12/08 02:03:14;;;;;;;1.23;0.40;;;3.50;94.00;;;;;;5055222;28;20028;-72
2020/12/08 02:05:39;;;;;;;1.50;0.50;;;3.50;93.90;;;;;;5053834;28;20032;-72
2020/12/08 02:08:05;;;;;;;1.07;0.40;;;3.50;93.90;;;;;;5055158;28;20040;-72
2020/12/08 02:10:30;;;;;;;1.23;0.43;;;3.40;93.80;;;;;;5055083;28;20029;-72
2020/12/08 02:12:56;;;;;;;1.77;0.40;;;3.40;93.70;;;;;;5053835;28;20439;-72
2020/12/08 02:15:23;;;;;;;1.50;0.50;;;3.40;93.70;;;;;;5054033;28;20492;-72
2020/12/08 02:17:49;;;;;;;1.70;0.60;;;3.30;93.70;;;;;;5055019;28;20067;-72
2020/12/08 02:20:14;;;;;;;2.10;0.60;;;3.30;93.70;;;;;;5054912;28;20480;-72
2020/12/08 02:22:42;;;;;;;1.80;0.50;;;3.30;93.70;;;;;;5055042;28;20488;-72
2020/12/08 02:25:09;;;;;;;1.50;0.53;;;3.20;93.70;;;;;;5053485;28;20029;-72
2020/12/08 02:27:35;;;;;;;1.50;0.50;;;3.20;93.70;;;;;;5054674;28;20040;-73
2020/12/08 02:30:00;;;;;;;1.23;0.50;;;3.10;93.60;;;;;;5054621;28;20021;-72
2020/12/08 02:32:26;;;;;;;2.37;0.60;;;3.10;93.60;;;;;;5054832;28;20023;-72
2020/12/08 02:34:51;;;;;;;1.17;0.47;;;3.10;93.70;;;;;;5055069;28;20350;-72
2020/12/08 02:37:17;;;;;;;2.20;0.40;;;3.10;93.60;;;;;;5054381;28;20079;-72
2020/12/08 02:39:43;;;;;;;1.93;0.60;;;3.00;93.60;;;;;;5054551;28;20120;-72
2020/12/08 02:42:08;;;;;;;1.43;0.50;;;3.00;93.60;;;;;;5053584;28;20041;-72
2020/12/08 02:44:34;;;;;;;1.53;0.40;;;2.90;93.70;;;;;;5054576;28;20055;-72
2020/12/08 02:46:59;;;;;;;1.50;0.50;;;2.90;93.70;;;;;;5054212;28;20100;-72
2020/12/08 02:49:25;;;;;;;1.83;0.50;;;2.90;93.60;;;;;;5053092;28;20025;-72
2020/12/08 02:52:00;;;;;;;2.37;0.70;;;2.90;93.60;;;;;;5054342;28;20071;-72
2020/12/08 02:54:26;;;;;;;2.93;0.70;;;2.90;93.60;;;;;;5036466;28;20029;-72
2020/12/08 02:56:51;;;;;;;1.50;0.50;;;2.90;93.50;;;;;;5054477;28;20052;-72
2020/12/08 02:59:17;;;;;;;1.50;0.50;;;2.90;93.50;;;;;;5052871;28;20090;-72
2020/12/08 03:01:43;;;;;;;1.30;0.50;;;2.80;93.50;;;;;;5053003;28;20441;-72
2020/12/08 03:04:08;;;;;;;2.00;0.60;;;2.80;93.40;;;;;;5052898;28;20057;-72
2020/12/08 03:06:34;;;;;;;1.80;0.73;;;2.70;93.40;;;;;;5052867;28;20036;-73
2020/12/08 03:09:00;;;;;;;1.80;0.80;;;2.70;93.50;;;;;;5053879;28;20511;-72
2020/12/08 03:11:32;;;;;;;1.00;0.43;;;2.70;93.50;;;;;;5052710;28;20032;-72
2020/12/08 03:13:58;;;;;;;1.30;0.40;;;2.70;93.50;;;;;;5053839;28;20032;-72
2020/12/08 03:16:23;;;;;;;1.20;0.40;;;2.60;93.40;;;;;;5053941;28;20025;-73
2020/12/08 03:18:49;;;;;;;1.10;0.40;;;2.60;93.40;;;;;;5054118;28;20052;-72
2020/12/08 03:21:15;;;;;;;1.70;0.50;;;2.60;93.40;;;;;;5052289;28;20025;-72
2020/12/08 03:23:41;;;;;;;1.10;0.50;;;2.60;93.40;;;;;;5053803;28;20068;-72
2020/12/08 03:26:06;;;;;;;1.20;0.40;;;2.60;93.40;;;;;;5053806;28;20017;-72
2020/12/08 03:28:32;;;;;;;2.47;0.60;;;2.50;93.40;;;;;;5052375;28;20025;-72
2020/12/08 03:30:58;;;;;;;2.13;0.50;;;2.50;93.40;;;;;;5052515;28;20021;-72
2020/12/08 03:33:23;;;;;;;1.07;0.40;;;2.50;93.40;;;;;;5052373;28;20503;-72
2020/12/08 03:35:49;;;;;;;1.37;0.43;;;2.50;93.40;;;;;;5053446;28;20036;-72
2020/12/08 03:38:15;;;;;;;1.40;0.50;;;2.40;93.40;;;;;;5052279;28;20029;-72
2020/12/08 03:40:43;;;;;;;1.00;0.40;;;2.40;93.40;;;;;;5053909;28;20033;-72
2020/12/08 03:43:09;;;;;;;1.50;0.40;;;2.40;93.50;;;;;;5052559;28;20428;-72
2020/12/08 03:45:35;;;;;;;1.83;0.43;;;2.30;93.40;;;;;;5053414;28;20057;-72
2020/12/08 03:48:01;;;;;;;1.77;0.50;;;2.30;93.50;;;;;;5053421;28;20028;-72
2020/12/08 03:50:26;;;;;;;2.00;0.60;;;2.40;93.60;;;;;;5053153;28;20132;-72
2020/12/08 03:52:55;;;;;;;2.20;0.60;;;2.40;93.50;;;;;;5052073;28;20491;-72
2020/12/08 03:55:20;;;;;;;1.77;0.53;;;2.40;93.60;;;;;;5053335;28;20029;-72
2020/12/08 03:57:46;;;;;;;1.67;0.50;;;2.30;93.50;;;;;;5052768;28;20451;-72
2020/12/08 04:00:11;;;;;;;1.17;0.40;;;2.30;93.50;;;;;;5053241;28;20079;-81
2020/12/08 04:02:37;;;;;;;1.17;0.40;;;2.30;93.50;;;;;;5053374;28;20074;-82
2020/12/08 04:05:03;;;;;;;1.17;0.40;;;2.30;93.50;;;;;;5052072;28;20058;-72
2020/12/08 04:07:28;;;;;;;1.17;0.43;;;2.30;93.50;;;;;;5053223;28;20029;-73
2020/12/08 04:09:56;;;;;;;2.47;0.60;;;2.20;93.50;;;;;;5053241;28;20029;-72
2020/12/08 04:12:22;;;;;;;1.70;0.40;;;2.20;93.50;;;;;;5053059;28;20037;-81
2020/12/08 04:14:47;;;;;;;1.00;0.40;;;2.20;93.50;;;;;;5052157;28;20033;-81
2020/12/08 04:17:20;;;;;;;1.97;0.50;;;2.20;93.50;;;;;;5051907;28;20032;-81
2020/12/08 04:19:46;;;;;;;1.37;0.50;;;2.20;93.50;;;;;;5053183;28;20060;-81
2020/12/08 04:22:12;;;;;;;1.53;0.60;;;2.20;93.60;;;;;;5052108;28;20068;-81
2020/12/08 04:24:38;;;;;;;1.00;0.30;;;2.10;93.60;;;;;;5053241;28;20063;-81
2020/12/08 04:27:03;;;;;;;0.40;0.20;;;2.20;93.60;;;;;;5051947;28;20491;-81
2020/12/08 04:29:29;;;;;;;1.37;0.50;;;2.10;93.50;;;;;;5052200;28;20037;-81
2020/12/08 04:31:55;;;;;;;1.57;0.50;;;2.10;93.50;;;;;;5053027;28;20029;-81
2020/12/08 04:34:21;;;;;;;1.50;0.50;;;2.10;93.80;;;;;;5053058;28;20469;-81
2020/12/08 04:36:47;;;;;;;1.13;0.50;;;2.10;93.50;;;;;;5035167;28;20025;-81
2020/12/08 04:39:12;;;;;;;2.43;0.60;;;2.10;93.50;;;;;;5053227;28;20037;-81
2020/12/08 04:41:38;;;;;;;0.87;0.40;;;2.10;93.50;;;;;;5051711;28;20060;-81
2020/12/08 04:44:05;;;;;;;2.53;0.47;;;2.10;93.50;;;;;;5052827;28;20048;-81
2020/12/08 04:46:31;;;;;;;1.77;0.50;;;2.00;93.50;;;;;;5035250;28;20037;-81
2020/12/08 04:48:57;;;;;;;2.17;0.50;;;2.00;93.50;;;;;;5035052;28;20175;-81
2020/12/08 04:51:23;;;;;;;1.60;0.60;;;2.00;93.50;;;;;;5052787;28;20045;-81
2020/12/08 04:53:52;;;;;;;1.93;0.57;;;2.00;93.50;;;;;;5051542;28;20033;-81
2020/12/08 04:56:17;;;;;;;1.47;0.50;;;2.00;93.60;;;;;;5051719;28;20096;-81
2020/12/08 04:58:43;;;;;;;1.27;0.40;;;2.00;94.00;;;;;;5051644;28;20111;-81
2020/12/08 05:01:30;;;;;;;1.23;0.40;;;2.00;93.80;;;;;;5060231;28;20032;-81
2020/12/08 05:04:00;;;;;;;1.77;0.53;;;2.00;93.90;;;;;;5072089;28;20045;-81
2020/12/08 05:06:28;;;;;;;1.63;0.50;;;2.10;94.10;;;;;;5070646;28;20036;-82
2020/12/08 05:09:05;;;;;;;1.60;0.47;;;2.10;94.20;;;;;;5072840;28;20036;-82
2020/12/08 05:11:31;;;;;;;1.70;0.50;;;2.20;94.30;;;;;;5076178;28;20033;-81
2020/12/08 05:14:05;;;;;;;1.67;0.50;;;2.20;94.30;;;;;;5075045;28;20021;-81
2020/12/08 05:16:32;;;;;;;1.50;0.50;;;2.20;94.20;;;;;;5075834;28;20017;-81
2020/12/08 05:19:06;;;;;;;1.83;0.40;;;2.10;94.10;;;;;;5074940;28;20033;-81
2020/12/08 05:21:32;;;;;;;1.53;0.50;;;2.10;94.10;;;;;;5076219;28;20067;-82
2020/12/08 05:23:58;;;;;;;1.23;0.43;;;2.10;94.10;;;;;;5074869;28;20076;-82
2020/12/08 05:26:23;;;;;;;1.67;0.50;;;2.10;94.00;;;;;;5074813;28;20531;-81
2020/12/08 05:28:58;;;;;;;1.27;0.40;;;2.10;94.00;;;;;;5075010;28;20064;-82
2020/12/08 05:31:28;;;;;;;1.10;0.40;;;2.10;93.90;;;;;;5075951;28;20059;-81
2020/12/08 05:34:04;;;;;;;1.23;0.40;;;2.00;93.90;;;;;;5074726;28;20040;-81
2020/12/08 05:36:34;;;;;;;1.73;0.50;;;2.10;93.90;;;;;;5075499;28;20028;-81
2020/12/08 05:39:02;;;;;;;2.40;0.43;;;2.00;93.90;;;;;;5058481;28;20442;-81
2020/12/08 05:41:31;;;;;;;1.53;0.50;;;2.00;93.90;;;;;;5074424;28;20036;-81
2020/12/08 05:44:04;;;;;;;2.97;0.70;;;2.00;94.00;;;;;;5075781;28;20043;-81
2020/12/08 05:46:40;;;;;;;1.40;0.40;;;2.00;94.10;;;;;;5074436;28;20064;-82
2020/12/08 05:49:06;;;;;;;1.37;0.43;;;2.00;94.20;;;;;;5074280;28;20032;-81
2020/12/08 05:51:38;;;;;;;2.27;0.53;;;2.10;94.30;;;;;;5074370;28;20044;-81
2020/12/08 05:54:04;;;;;;;1.33;0.50;;;2.10;94.30;;;;;;5074452;28;20594;-81
2020/12/08 05:56:33;;;;;;;1.43;0.50;;;2.00;94.40;;;;;;5074239;28;20062;-82
2020/12/08 05:58:59;;;;;;;2.13;0.60;;;2.10;94.50;;;;;;5074229;28;20024;-82
2020/12/08 06:01:24;;;;;;;3.10;0.70;;;2.20;94.60;;;;;;5075503;28;20527;-82
2020/12/08 06:03:54;;;;;;;1.03;0.50;;;2.20;94.70;;;;;;5075440;28;20068;-82
2020/12/08 06:06:20;;;;;;;1.77;0.47;;;2.20;94.80;;;;;;5075682;28;20032;-82
2020/12/08 06:08:46;;;;;;;2.33;0.50;;;2.20;94.80;;;;;;5040827;28;20036;-82
2020/12/08 06:11:13;;;;;;;1.43;0.47;;;2.30;94.90;;;;;;5074734;28;20023;-82
2020/12/08 06:13:48;;;;;;;1.60;0.57;;;2.30;95.00;;;;;;5071466;28;20044;-83
2020/12/08 06:16:22;;;;;;;2.80;0.50;;;2.40;95.00;;;;;;5073748;28;20020;-82
2020/12/08 06:18:49;;;;;;;1.80;0.50;;;2.40;95.00;;;;;;5071316;28;20107;-82
2020/12/08 06:21:20;;;;;;;2.00;0.60;;;2.40;95.10;;;;;;5059683;28;20065;-81
2020/12/08 06:23:51;;;;;;;2.43;0.57;;;2.40;95.10;;;;;;5065978;28;20103;-81
2020/12/08 06:26:37;;;;;;;1.47;0.40;;;2.50;95.40;;;;;;5057160;28;20125;-81
2020/12/08 06:29:07;;;;;;;1.03;0.47;;;2.50;95.10;;;;;;5062781;28;20025;-82
2020/12/08 06:31:47;;;;;;;1.47;0.50;;;2.50;95.20;;;;;;5055100;28;20021;-83
2020/12/08 06:34:29;;;;;;;1.20;0.43;;;2.50;95.20;;;;;;5053696;28;20025;-82
2020/12/08 06:36:54;;;;;;;1.90;0.57;;;2.60;95.20;;;;;;5056452;28;20017;-82
2020/12/08 06:39:21;;;;;;;1.50;0.40;;;2.70;95.30;;;;;;5067465;28;20024;-83
2020/12/08 06:41:47;;;;;;;1.30;0.50;;;2.60;95.30;;;;;;5072113;28;20150;-83
2020/12/08 06:44:21;;;;;;;0.93;0.30;;;2.60;95.30;;;;;;5066408;28;20484;-82
2020/12/08 06:47:00;;;;;;;1.73;0.40;;;2.70;95.30;;;;;;5075741;28;20021;-83
2020/12/08 06:49:27;;;;;;;0.80;0.40;;;2.70;95.40;;;;;;5079058;28;20085;-82
2020/12/08 06:51:55;;;;;;;1.43;0.40;;;2.70;95.40;;;;;;5068947;28;20072;-82
2020/12/08 06:54:20;;;;;;;1.60;0.50;;;2.70;95.40;;;;;;5060469;28;20025;-83
2020/12/08 06:56:46;;;;;;;1.50;0.50;;;2.70;95.70;;;;;;5059124;28;20025;-83
2020/12/08 06:59:24;;;;;;;0.80;0.30;;;2.80;95.40;;;;;;5066143;28;20029;-82
2020/12/08 07:01:53;;;;;;;1.23;0.50;;;2.80;95.50;;;;;;5064672;28;20490;-83
2020/12/08 07:04:20;;;;;;;1.47;0.50;;;2.80;95.50;;;;;;5066582;28;20167;-83
2020/12/08 07:06:46;;;;;;;1.70;0.40;;;2.80;95.50;;;;;;5065536;28;20039;-82
2020/12/08 07:09:12;;;;;;;1.97;0.60;;;2.80;95.50;;;;;;5065710;28;20032;-82
2020/12/08 07:11:38;;;;;;;1.43;0.50;;;2.90;95.50;;;;;;5063410;28;20428;-82
2020/12/08 07:14:05;;;;;;;0.90;0.43;;;2.90;95.60;;;;;;5061012;28;20009;-81
2020/12/08 07:16:33;;;;;;;1.70;0.40;;;2.90;95.50;;;;;;5053026;28;20086;-82
2020/12/08 07:18:59;;;;;;;1.80;0.43;;;2.90;95.60;;;;;;5036392;28;20078;-81
2020/12/08 07:21:25;;;;;;;0.67;0.30;;;3.00;95.60;;;;;;5052491;28;20492;-82
2020/12/08 07:23:52;;;;;;;1.80;0.50;;;3.00;95.60;;;;;;5053961;28;20029;-82
2020/12/08 07:26:26;;;;;;;1.40;0.50;;;3.00;95.60;;;;;;5052539;28;20120;-83
2020/12/08 07:28:53;;;;;;;1.40;0.47;;;3.10;95.70;;;;;;5036312;28;20034;-83
2020/12/08 07:31:24;;;;;;;1.60;0.60;;;3.10;95.60;;;;;;5053498;28;20078;-83
2020/12/08 07:33:50;;;;;;;2.77;0.60;;;3.10;95.60;;;;;;5051865;28;20021;-83
2020/12/08 07:36:25;;;;;;;2.77;0.60;;;3.10;95.60;;;;;;5052579;28;20061;-83
2020/12/08 07:38:53;;;;;;;1.77;0.60;;;3.10;95.60;;;;;;5052354;28;20219;-83
2020/12/08 07:41:20;;;;;;;2.13;0.90;;;3.10;95.60;;;;;;5053589;28;20384;-83
2020/12/08 07:43:46;;;;;;;2.00;0.60;;;3.10;95.60;;;;;;5053536;28;20017;-82
2020/12/08 07:46:11;;;;;;;1.67;0.50;;;3.20;95.70;;;;;;5052552;28;20025;-83
2020/12/08 07:48:37;;;;;;;1.50;0.50;;;3.20;95.70;;;;;;5035556;28;20032;-83
2020/12/08 07:51:03;;;;;;;2.73;0.70;;;3.20;95.70;;;;;;5052024;28;20520;-84
2020/12/08 07:53:36;;;;;;;2.77;0.70;;;3.20;95.70;;;;;;5053540;28;20032;-83
2020/12/08 07:56:03;;;;;;;2.25;0.73;;;3.30;95.70;;;;;;5055543;28;20379;-83
2020/12/08 07:58:30;;;;;;;2.13;0.60;;;3.30;95.70;;;;;;5054825;28;20020;-83
2020/12/08 08:00:57;;;;;;;2.10;0.60;;;3.40;95.80;;;;;;5054742;28;20028;-83
2020/12/08 08:03:24;;;;;;;1.93;0.60;;;3.30;95.70;;;;;;5055575;28;20106;-83
2020/12/08 08:05:50;;;;;;;2.67;0.70;;;3.40;95.70;;;;;;5073443;28;20024;-83
2020/12/08 08:08:15;;;;;;;1.90;0.70;;;3.40;95.70;;;;;;5051712;28;20025;-83
2020/12/08 08:10:41;;;;;;;2.33;0.60;;;3.40;95.70;;;;;;5051866;28;20035;-84
2020/12/08 08:13:06;;;;;;;1.60;0.63;;;3.40;95.70;;;;;;5035293;28;20025;-83
2020/12/08 08:15:32;;;;;;;1.50;0.50;;;3.50;96.00;;;;;;5035545;28;20036;-83
2020/12/08 08:17:58;;;;;;;2.13;0.70;;;3.50;95.70;;;;;;5051731;28;20025;-83
2020/12/08 08:20:23;;;;;;;2.03;0.60;;;3.50;95.70;;;;;;5052181;28;20029;-83
2020/12/08 08:22:50;;;;;;;2.50;0.60;;;3.60;95.70;;;;;;5051811;28;20027;-83
2020/12/08 08:25:15;;;;;;;2.37;0.70;;;3.60;95.70;;;;;;5051822;28;20032;-84
2020/12/08 08:27:41;;;;;;;2.23;0.50;;;3.60;95.70;;;;;;5035316;28;20036;-83
2020/12/08 08:30:06;;;;;;;2.83;0.80;;;3.60;95.70;;;;;;5051721;28;20423;-83
2020/12/08 08:32:32;;;;;;;2.17;0.50;;;3.60;95.70;;;;;;5047435;28;20033;-83
2020/12/08 08:34:58;;;;;;;1.87;0.53;;;3.60;95.70;;;;;;5035188;28;20392;-83
2020/12/08 08:37:23;;;;;;;1.87;0.50;;;3.60;95.70;;;;;;5035294;28;20029;-83
2020/12/08 08:39:49;;;;;;;2.10;0.67;;;3.70;95.70;;;;;;5051684;28;20027;-83
2020/12/08 08:42:14;;;;;;;2.17;0.60;;;3.70;95.70;;;;;;5051714;28;20031;-83
2020/12/08 08:44:40;;;;;;;1.63;0.57;;;3.70;95.80;;;;;;5037912;28;20029;-83
2020/12/08 08:47:06;;;;;;;2.40;0.77;;;3.70;95.70;;;;;;5055688;28;20033;-83
2020/12/08 08:49:31;;;;;;;2.07;0.53;;;3.70;95.70;;;;;;5055525;28;20017;-84
2020/12/08 08:51:57;;;;;;;3.23;0.60;;;3.80;95.80;;;;;;5055505;28;20080;-83
2020/12/08 08:54:22;;;;;;;1.90;0.50;;;3.70;95.80;;;;;;5055465;28;20036;-83
2020/12/08 08:56:48;;;;;;;1.93;0.50;;;3.80;96.10;;;;;;5022548;28;20028;-84
2020/12/08 08:59:13;;;;;;;1.77;0.60;;;3.80;95.90;;;;;;5038593;28;20082;-84
2020/12/08 09:01:39;;;;;;;1.80;0.60;;;4.00;95.90;;;;;;5039156;28;20044;-84
2020/12/08 09:04:05;;;;;;;2.30;0.60;;;3.90;95.90;;;;;;5038965;28;20025;-83
2020/12/08 09:06:30;;;;;;;2.20;0.70;;;3.90;95.90;;;;;;5055274;28;20475;-83
2020/12/08 09:08:59;;;;;;;2.67;0.73;;;4.00;95.90;;;;;;5055271;28;20115;-83
2020/12/08 09:11:26;;;;;;;2.17;0.60;;;4.00;95.90;;;;;;5071328;28;20039;-84
2020/12/08 09:13:52;;;;;;;3.40;0.60;;;4.00;95.90;;;;;;5075166;28;20108;-83
2020/12/08 09:16:19;;;;;;;2.63;0.70;;;4.00;95.90;;;;;;5064914;28;20437;-83
2020/12/08 09:18:45;;;;;;;2.30;0.70;;;4.00;95.90;;;;;;5038725;28;20036;-83
2020/12/08 09:21:10;;;;;;;2.43;0.73;;;4.10;96.00;;;;;;5054914;28;20045;-83
2020/12/08 09:23:36;;;;;;;2.63;0.70;;;4.10;96.00;;;;;;5021879;28;20033;-84
2020/12/08 09:26:02;;;;;;;2.07;0.60;;;4.20;96.00;;;;;;5033706;28;20369;-83
2020/12/08 09:28:27;;;;;;;3.17;0.80;;;4.20;96.00;;;;;;5037990;28;20025;-83
2020/12/08 09:30:53;;;;;;;2.80;0.90;;;4.20;96.00;;;;;;5038108;28;20465;-84
2020/12/08 09:33:19;;;;;;;3.83;0.80;;;4.20;95.90;;;;;;5054800;28;20044;-83
2020/12/08 09:35:45;;;;;;;1.70;0.50;;;4.20;95.90;;;;;;5054601;28;20029;-84
2020/12/08 09:38:11;;;;;;;2.00;0.77;;;4.20;96.00;;;;;;5054592;28;20037;-84
2020/12/08 09:40:37;;;;;;;2.87;0.80;;;4.20;96.00;;;;;;5038223;28;20044;-83
2020/12/08 09:43:04;;;;;;;1.83;0.67;;;4.30;96.00;;;;;;5054704;28;20110;-84
2020/12/08 09:45:30;;;;;;;1.57;0.60;;;4.30;96.00;;;;;;5055172;28;20061;-84
2020/12/08 09:47:56;;;;;;;2.90;0.60;;;4.40;96.10;;;;;;5037892;28;20484;-83
2020/12/08 09:50:22;;;;;;;2.63;0.60;;;4.40;96.10;;;;;;5037662;28;20036;-83
2020/12/08 09:52:47;;;;;;;2.87;0.50;;;4.40;96.10;;;;;;5054263;28;20025;-84
2020/12/08 09:55:13;;;;;;;2.43;0.60;;;4.50;96.20;;;;;;5038279;28;20112;-83
2020/12/08 09:57:39;;;;;;;1.20;0.43;;;4.50;96.20;;;;;;5070888;28;20043;-83
2020/12/08 10:00:06;;;;;;;1.87;0.60;;;4.60;96.30;;;;;;5071016;28;20033;-83
2020/12/08 10:02:32;;;;;;;2.20;0.60;;;4.60;96.30;;;;;;5055448;28;20112;-83
2020/12/08 10:04:58;;;;;;;1.73;0.60;;;4.70;96.30;;;;;;5073952;28;20119;-83
2020/12/08 10:07:24;;;;;;;1.37;0.50;;;4.70;96.30;;;;;;5072403;28;20036;-83
2020/12/08 10:09:50;;;;;;;1.70;0.70;;;4.70;96.30;;;;;;5037736;28;20037;-83
2020/12/08 10:12:17;;;;;;;2.53;0.50;;;4.80;96.40;;;;;;5074207;28;20025;-83
2020/12/08 10:14:43;;;;;;;1.73;0.50;;;4.80;96.40;;;;;;5075207;28;20054;-83
2020/12/08 10:17:10;;;;;;;2.00;0.50;;;4.90;96.40;;;;;;5075131;28;20069;-83
2020/12/08 10:19:36;;;;;;;2.33;0.50;;;5.00;96.50;;;;;;5075082;28;20032;-84
2020/12/08 10:22:02;;;;;;;1.43;0.50;;;5.00;96.50;;;;;;5074973;28;20425;-83
2020/12/08 10:24:27;;;;;;;1.50;0.50;;;5.00;96.50;;;;;;5073877;28;20033;-83
2020/12/08 10:26:53;;;;;;;2.30;0.50;;;5.10;96.50;;;;;;5073839;28;20132;-83
2020/12/08 10:29:20;;;;;;;1.97;0.70;;;5.10;96.60;;;;;;5041675;28;20036;-84
2020/12/08 10:31:46;;;;;;;2.03;0.40;;;5.20;96.60;;;;;;5036998;28;20029;-84
2020/12/08 10:34:11;;;;;;;1.27;0.40;;;5.20;96.60;;;;;;5053446;28;20025;-83
2020/12/08 10:36:38;;;;;;;1.70;0.40;;;5.30;96.70;;;;;;5036827;28;20473;-83
2020/12/08 10:39:04;;;;;;;1.00;0.40;;;5.50;96.90;;;;;;5054634;28;20100;-83
2020/12/08 10:41:30;;;;;;;1.37;0.57;;;5.70;97.10;;;;;;5036887;28;20530;-83
2020/12/08 10:43:56;;;;;;;1.63;0.40;;;5.80;97.20;;;;;;5053303;28;20486;-83
2020/12/08 10:46:22;;;;;;;0.93;0.30;;;6.00;97.30;;;;;;5054536;28;20052;-84
2020/12/08 10:48:50;;;;;;;0.73;0.30;;;6.20;97.50;;;;;;5054492;28;20124;-83
2020/12/08 10:51:22;;;;;;;0.47;0.20;;;6.30;97.50;;;;;;5069838;28;20048;-84
2020/12/08 10:53:48;;;;;;;0.53;0.30;;;6.40;97.80;;;;;;5060383;28;20036;-83
2020/12/08 10:56:24;;;;;;;0.37;0.17;;;6.50;97.50;;;;;;5053026;28;20029;-84
2020/12/08 10:58:50;;;;;;;0.80;0.20;;;6.60;97.60;;;;;;5058615;28;20025;-83
2020/12/08 11:01:26;;;;;;;0.87;0.20;;;6.70;97.60;;;;;;5020099;28;20044;-84
2020/12/08 11:03:54;;;;;;;0.40;0.20;;;6.80;97.60;;;;;;5036472;28;20389;-83
2020/12/08 11:06:19;;;;;;;0.60;0.20;;;6.90;97.60;;;;;;5036160;28;20175;-83
2020/12/08 11:08:45;;;;;;;0.60;0.20;;;6.90;97.60;;;;;;5052756;28;20477;-84
2020/12/08 11:11:11;;;;;;;0.70;0.30;;;7.00;97.50;;;;;;5036315;28;20051;-84
2020/12/08 11:13:37;;;;;;;0.73;0.20;;;7.00;97.80;;;;;;5052848;28;20456;-84
2020/12/08 11:16:05;;;;;;;0.60;0.30;;;7.20;97.70;;;;;;5036140;28;20124;-84
2020/12/08 11:18:31;;;;;;;0.70;0.30;;;7.20;97.90;;;;;;5035901;28;20538;-83
2020/12/08 11:20:57;;;;;;;0.80;0.30;;;7.50;98.10;;;;;;5052407;28;20115;-84
2020/12/08 11:23:22;;;;;;;0.40;0.20;;;7.60;98.10;;;;;;5053860;28;20112;-85
2020/12/08 11:25:48;;;;;;;0.40;0.20;;;7.80;98.30;;;;;;5036125;28;20067;-84
2020/12/08 11:28:14;;;;;;;0.60;0.30;;;7.70;97.80;;;;;;5047237;28;20391;-84
2020/12/08 11:30:39;;;;;;;1.30;0.23;;;7.80;97.90;;;;;;5039267;28;20036;-83
2020/12/08 11:33:05;;;;;;;0.40;0.20;;;8.10;98.00;;;;;;5056272;28;20052;-83
2020/12/08 11:35:31;;;;;;;0.30;0.20;;;8.10;98.00;;;;;;5072492;28;20074;-83
2020/12/08 11:37:56;;;;;;;0.43;0.10;;;8.10;97.90;;;;;;5055738;28;20025;-83
2020/12/08 11:40:22;;;;;;;0.40;0.20;;;8.20;97.90;;;;;;5072879;28;20032;-83
2020/12/08 11:42:47;;;;;;;0.50;0.20;;;8.20;97.80;;;;;;5072184;28;20027;-83
2020/12/08 11:45:13;;;;;;;0.60;0.20;;;8.30;97.70;;;;;;5073411;28;20028;-84
2020/12/08 11:47:40;;;;;;;0.47;0.20;;;8.20;97.60;;;;;;5054904;28;20032;-83
2020/12/08 11:50:06;;;;;;;0.43;0.20;;;8.30;97.50;;;;;;5064543;28;20036;-83
2020/12/08 11:52:31;;;;;;;1.00;0.40;;;8.20;97.30;;;;;;5064560;28;20126;-83
2020/12/08 11:54:57;;;;;;;0.77;0.30;;;8.20;97.20;;;;;;5019116;28;20037;-83
2020/12/08 11:57:23;;;;;;;0.63;0.30;;;8.20;96.90;;;;;;5052011;28;20055;-83
2020/12/08 11:59:48;;;;;;;0.73;0.30;;;8.10;96.80;;;;;;5052029;28;20075;-83
2020/12/08 12:02:14;;;;;;;0.60;0.30;;;8.10;96.70;;;;;;5052048;28;20033;-82
2020/12/08 12:04:39;;;;;;;0.77;0.30;;;8.00;96.50;;;;;;5052068;28;20043;-83
2020/12/08 12:07:05;;;;;;;1.57;0.47;;;7.90;96.50;;;;;;5035846;28;20029;-82
2020/12/08 12:09:30;;;;;;;1.10;0.40;;;7.90;96.60;;;;;;5068474;28;20033;-84
2020/12/08 12:11:56;;;;;;;1.13;0.50;;;7.90;96.90;;;;;;5035411;28;20029;-74
2020/12/08 12:14:22;;;;;;;0.83;0.30;;;8.10;97.00;;;;;;5053139;28;20072;-75
2020/12/08 12:16:47;;;;;;;0.60;0.30;;;8.50;97.50;;;;;;5053104;28;20040;-74
2020/12/08 12:19:13;;;;;;;0.50;0.20;;;8.60;97.70;;;;;;5054017;28;20062;-74
2020/12/08 12:21:38;;;;;;;0.50;0.20;;;8.80;97.80;;;;;;5055905;28;20029;-74
2020/12/08 12:24:04;;;;;;;0.30;0.10;;;9.00;98.00;;;;;;5039544;28;20357;-74
2020/12/08 12:26:30;;;;;;;0.40;0.13;;;9.10;97.90;;;;;;5055810;28;20040;-74
2020/12/08 12:28:55;;;;;;;0.40;0.10;;;9.30;97.80;;;;;;5055624;28;20040;-74
2020/12/08 12:31:21;;;;;;;0.27;0.10;;;9.40;97.80;;;;;;5055839;28;20546;-74
2020/12/08 12:33:48;;;;;;;0.20;0.10;;;9.60;98.00;;;;;;5072230;28;20106;-75
2020/12/08 12:36:14;;;;;;;0.53;0.20;;;9.60;97.90;;;;;;5039512;28;20079;-74
2020/12/08 12:38:40;;;;;;;0.53;0.20;;;9.80;98.00;;;;;;5055831;28;20037;-75
2020/12/08 12:41:06;;;;;;;0.60;0.30;;;9.90;98.00;;;;;;5039564;28;20473;-75
2020/12/08 12:43:32;;;;;;;1.17;0.50;;;10.30;98.80;;;;;;5055651;28;20067;-75
2020/12/08 12:45:58;;;;;;;1.10;0.50;;;10.60;99.40;;;;;;5062292;28;20024;-75
2020/12/08 12:48:24;;;;;;;0.93;0.40;;;10.90;99.40;;;;;;5047964;28;20028;-75
2020/12/08 12:50:49;;;;;;;1.50;0.60;;;11.00;99.30;;;;;;5072121;28;20068;-75
2020/12/08 12:53:15;;;;;;;1.65;0.68;;;11.30;99.10;;;;;;5041856;28;20029;-75
2020/12/08 12:55:40;;;;;;;1.33;0.50;;;11.40;99.10;;;;;;5058479;28;20052;-75